Apex, NC

9:30 AM EST on January 26, 2015 (GMT -0500)
Villages of Apex | Change Station
CLOSE
Current Station
Personal Weather Station
Location: Apex, NC
Elevation: 486 ft
Nearby Weather Stations

Elev 486 ft 35.74 °N, 78.84 °W | Updated 23 seconds ago

Rain
Rain
43.0 °F
Feels Like 43 °F
N
0.0
Wind Variable Wind from WSW
Gusts 0.0 mph

Today
High -- | Low -- °F
--% Chance of Precip.
Yesterday
High -- | Low -- °F
Precip. -- in
7:19 AM 5:36 PM
Waxing Crescent, 43% visible
Pressure 29.68 in
Visibility 4.0 miles
Clouds Mostly Cloudy 3500 ft
Overcast 5000 ft
Windchill 43 °F
Dew Point 42 °F
Humidity 98%
Rainfall 0.25 in
Snow Depth Not available.
UV 2.0 out of 12
Pollen .40 out of 12
Air Quality Not available.
Flu Activity Not available.
METAR KRDU 261351Z 00000KT 4SM -RA BR BKN035 OVC050 05/04 A2968 RMK AO2 SLP050 P0007 T00500039

More Conditions Fewer Conditions

Pressure 29.68 in
Visibility 4.0 miles
Clouds Mostly Cloudy 3500 ft
Overcast 5000 ft
Windchill 43 °F
Dew Point 42 °F
Humidity 98%
Rainfall 0.25 in
Snow Depth Not available.
UV 2.0 out of 12
Pollen .40 out of 12
Air Quality Not available.
Flu Activity Not available.
METAR KRDU 261351Z 00000KT 4SM -RA BR BKN035 OVC050 05/04 A2968 RMK AO2 SLP050 P0007 T00500039

More Conditions Fewer Conditions

10-Day Weather Forecast

Almanac

Astronomy

Jan. 26, 2015 Rise Set
Actual Time
Civil Twilight
Nautical Twilight
Astronomical Twilight
Moon
Length of Visible Light
Length of Day
Tomorrow will be .
, % of the Moon is Illuminated

Today's Extremes

State Highs State Lows

Community

WunderPhotos

Upload Photos

1,790,226 photos uploaded!

WunderBlogs® & News

Nearby

Air Quality

  Air Quality AQ Index Pollutant
Not available.

Snow Depth

Station Depth Elevation

Earthquake Activity

City Distance Mag. Time & Date
Minimum magnitude displayed is 2.5.

Coastal Water Temperatures

Place Temperature

Nearby Weather Stations